Main page
METAR-TAF:

METAR-TAF

Airports :

Bandar Lengeh Airport

Bandar Lengeh, Iran

latitude: 26-35N, longitude: 054-50E, elevation: 14 m

Current weather observation

The report was made 56 minutes ago, at 00:00 UTC
Wind 4 kt from the East
Temperature 33°C
Humidity 80%
Pressure 997 hPa
Visibility: 4000 m
mist

METAR: OIBL 210000Z 08004KT 4000 BR NSC 33/29 Q0997

Time: 05:26 (00:56 UTC)


TAF: missing

Weather observations and forecasts of more than 4000 airports (METAR and TAF reports).

The available stations are represented by yellow and red dots on the map.

Hover mouse over dot to see the name of the station.

Then click to see weather observations and forecasts.

To change the map : click on the green buttons with a black cross to zoom in, on the green button with a dash to zoom out, or on the green arrows for adjacent maps.


METAR-TAF: